South Hadley Falls, Massachusetts
Current Conditions -  °F | °C
As of 10:58 AM on Monday 24 Nov 2014 (Local Time) from KCEF Reporting Station
Drizzle Drizzle  
Wind Chill: 63°   Ceiling: 900
Heat Index: 63°   Visibility: 7mi
Dew Point: 61°   Wind: 15mph
Humidity: 93%   Direction: 190°S
Pressure: 29.65"   Gusts: 24mph
Location:  42.2564°N, 72.5775°W
Report Text: KCEF 241558Z 19013G21KT 7SM -DZ BKN009 BKN011 OVC021 17/16 A2965 RMK AO2A SLP047 P0000 T01700159
Loading
Personal Weather Stations






























Interactive Weather Map New forecast layout! Learn more

10-Day Weather Forecast

Advertisements
Track Severe Weather on mobile